Time;durP1;ratioP1;P1;durP2;ratioP2;P2;SDS_P1;SDS_P2;PMS_P1;PMS_P2;Temp;Humidity;BMP_temperature;BMP_pressure;BME280_temperature;BME280_humidity;BME280_pressure;Samples;Min_cycle;Max_cycle;Signal;HPM_P1;HPM_P2
2022/09/19 00:01:21;;;;;;;3.80;2.20;;;10.80;99.90;;;;;;5093684;28;20390;-52
2022/09/19 00:03:58;;;;;;;2.80;2.13;;;10.70;99.90;;;;;;5095449;28;20063;-51
2022/09/19 00:06:26;;;;;;;4.05;2.17;;;11.40;99.90;;;;;;5095003;28;20107;-53
2022/09/19 00:08:52;;;;;;;3.00;1.90;;;11.40;99.90;;;;;;5094771;28;20448;-54
2022/09/19 00:11:19;;;;;;;3.30;1.83;;;11.60;99.90;;;;;;5094431;28;20036;-53
2022/09/19 00:13:47;;;;;;;3.25;2.10;;;11.80;99.90;;;;;;5095191;28;20031;-52
2022/09/19 00:16:20;;;;;;;2.83;1.95;;;12.10;99.90;;;;;;5094852;28;20042;-51
2022/09/19 00:18:48;;;;;;;2.90;2.00;;;12.00;99.90;;;;;;5094777;28;20505;-52
2022/09/19 00:21:27;;;;;;;2.10;1.70;;;12.30;99.90;;;;;;5094677;28;20281;-53
2022/09/19 00:26:38;;;;;;;2.55;1.65;;;12.30;99.90;;;;;;5094373;28;20027;-52
2022/09/19 00:29:06;;;;;;;4.20;1.80;;;12.20;99.90;;;;;;5094532;28;20097;-52
2022/09/19 00:31:32;;;;;;;2.58;1.63;;;12.10;99.90;;;;;;5094328;28;20402;-52
2022/09/19 00:33:59;;;;;;;2.85;1.55;;;12.20;99.90;;;;;;5093072;28;20024;-52
2022/09/19 00:36:25;;;;;;;3.03;1.80;;;12.10;99.90;;;;;;5094364;28;20032;-52
2022/09/19 00:38:50;;;;;;;3.97;1.88;;;12.40;99.90;;;;;;5094061;28;20027;-50
2022/09/19 00:41:19;;;;;;;4.45;1.77;;;12.30;99.90;;;;;;5093873;28;20036;-53
2022/09/19 00:43:48;;;;;;;2.88;1.77;;;12.10;99.90;;;;;;5094201;28;20046;-52
2022/09/19 00:46:14;;;;;;;3.22;1.63;;;12.50;99.90;;;;;;5094568;28;20036;-52
2022/09/19 00:48:42;;;;;;;2.92;1.65;;;12.00;99.90;;;;;;5093874;28;20054;-50
2022/09/19 00:51:22;;;;;;;2.72;1.77;;;11.90;99.90;;;;;;5094082;28;20103;-51
2022/09/19 00:53:48;;;;;;;2.75;1.50;;;11.80;99.90;;;;;;5093925;28;20900;-53
2022/09/19 00:56:16;;;;;;;3.95;1.58;;;11.60;99.90;;;;;;5093715;28;20055;-52
2022/09/19 00:58:45;;;;;;;3.08;1.77;;;11.50;99.90;;;;;;5093958;28;20032;-51
2022/09/19 01:01:15;;;;;;;3.50;1.75;;;11.30;99.90;;;;;;5094094;28;20095;-52
2022/09/19 01:03:45;;;;;;;4.35;1.67;;;11.30;99.90;;;;;;5094038;28;20036;-53
2022/09/19 01:06:35;;;;;;;3.67;1.50;;;11.70;99.90;;;;;;5094116;28;20016;-52
2022/09/19 01:09:28;;;;;;;3.50;1.60;;;11.50;99.90;;;;;;5093539;28;20032;-51
2022/09/19 01:12:16;;;;;;;4.32;2.10;;;11.70;99.90;;;;;;5092471;28;20028;-54
2022/09/19 01:14:58;;;;;;;3.53;1.67;;;11.60;99.90;;;;;;5093575;28;20110;-53
2022/09/19 01:17:48;;;;;;;2.05;1.63;;;11.30;99.90;;;;;;5093618;28;20032;-52
2022/09/19 01:20:14;;;;;;;2.72;1.70;;;11.80;99.90;;;;;;5093607;28;20074;-53
2022/09/19 01:23:12;;;;;;;3.30;1.50;;;11.50;99.90;;;;;;5093276;28;20048;-52
2022/09/19 01:26:11;;;;;;;2.67;1.75;;;11.30;99.90;;;;;;5093401;28;20036;-53
2022/09/19 01:28:47;;;;;;;2.35;1.50;;;11.20;99.90;;;;;;5093393;28;20019;-52
2022/09/19 01:31:21;;;;;;;4.75;1.60;;;10.80;99.90;;;;;;5093426;28;20056;-53
2022/09/19 01:33:57;;;;;;;;;;;10.40;99.90;;;;;;5093637;28;20028;-53
2022/09/19 01:36:30;;;;;;;2.05;1.52;;;10.30;99.90;;;;;;5093163;28;19994;-53
2022/09/19 01:38:57;;;;;;;2.40;1.87;;;10.10;99.90;;;;;;5093250;28;20110;-51
2022/09/19 01:41:23;;;;;;;3.67;1.73;;;10.30;99.90;;;;;;5093274;28;20440;-52
2022/09/19 01:43:50;;;;;;;2.33;1.60;;;10.00;99.90;;;;;;5093123;28;20032;-52
2022/09/19 01:46:52;;;;;;;2.13;1.58;;;9.80;99.90;;;;;;5093308;28;20509;-52
2022/09/19 01:49:24;;;;;;;2.03;1.70;;;9.60;99.90;;;;;;5092613;28;20035;-53
2022/09/19 01:51:57;;;;;;;2.63;1.60;;;9.50;99.90;;;;;;5092747;28;20478;-52
2022/09/19 01:54:26;;;;;;;2.00;1.60;;;9.40;99.90;;;;;;5092981;28;20064;-54
2022/09/19 01:57:16;;;;;;;2.33;1.60;;;9.30;99.90;;;;;;5093398;28;20027;-52
2022/09/19 02:00:03;;;;;;;2.75;1.60;;;9.30;99.90;;;;;;5093099;28;20039;-52
2022/09/19 02:03:03;;;;;;;3.25;1.67;;;9.20;99.90;;;;;;5092894;28;20028;-51
2022/09/19 02:05:35;;;;;;;2.72;1.80;;;9.10;99.90;;;;;;5078026;28;20044;-51
2022/09/19 02:08:12;;;;;;;4.25;1.67;;;9.00;99.90;;;;;;5092396;28;20395;-53
2022/09/19 02:10:46;;;;;;;4.95;1.85;;;9.00;99.90;;;;;;5092531;28;20065;-52
2022/09/19 02:13:13;;;;;;;;;;;8.90;99.90;;;;;;5093073;28;20031;-54
2022/09/19 02:15:41;;;;;;;3.13;1.67;;;8.80;99.90;;;;;;5092759;28;19908;-54
2022/09/19 02:18:24;;;;;;;4.47;1.80;;;8.70;99.90;;;;;;5092986;28;20035;-53
2022/09/19 02:20:55;;;;;;;2.72;1.88;;;8.60;99.90;;;;;;5092037;28;20020;-52
2022/09/19 02:23:26;;;;;;;2.88;1.80;;;8.60;99.90;;;;;;5092433;28;20048;-53
2022/09/19 02:25:55;;;;;;;4.05;1.88;;;8.60;99.90;;;;;;5092465;28;20474;-54
2022/09/19 02:28:41;;;;;;;3.20;1.90;;;8.50;99.90;;;;;;5092384;28;20387;-54
2022/09/19 02:31:09;;;;;;;6.03;2.05;;;8.40;99.90;;;;;;5092594;28;20024;-53
2022/09/19 02:33:36;;;;;;;2.58;1.80;;;8.30;99.90;;;;;;5092116;28;20410;-52
2022/09/19 02:36:30;;;;;;;3.33;1.92;;;8.30;99.90;;;;;;5091942;28;20022;-53
2022/09/19 02:39:10;;;;;;;4.97;2.00;;;8.30;99.90;;;;;;5092172;28;20110;-53
2022/09/19 02:41:52;;;;;;;3.10;1.85;;;8.20;99.90;;;;;;5092153;28;20482;-52
2022/09/19 02:44:30;;;;;;;4.68;1.90;;;8.00;99.90;;;;;;5092004;28;20409;-53
2022/09/19 02:47:18;;;;;;;3.65;1.98;;;8.10;99.90;;;;;;5092454;28;20024;-54
2022/09/19 02:50:03;;;;;;;4.63;2.20;;;8.10;99.90;;;;;;5092249;28;20390;-54
2022/09/19 02:52:32;;;;;;;2.63;2.08;;;8.10;99.90;;;;;;5092147;28;20044;-52
2022/09/19 02:55:09;;;;;;;3.53;1.92;;;8.10;99.90;;;;;;5092125;28;20125;-55
2022/09/19 02:57:36;;;;;;;2.30;1.90;;;8.00;99.90;;;;;;5092051;28;20016;-52
2022/09/19 03:00:05;;;;;;;3.33;2.20;;;7.90;99.90;;;;;;5095004;28;20436;-53
2022/09/19 03:02:56;;;;;;;2.42;1.80;;;7.90;99.90;;;;;;5096046;28;20439;-54
2022/09/19 03:05:25;;;;;;;3.65;2.10;;;7.70;99.90;;;;;;5095733;28;20031;-53
2022/09/19 03:08:05;;;;;;;4.28;1.80;;;7.70;99.90;;;;;;5096197;28;20008;-53
2022/09/19 03:10:35;;;;;;;4.68;2.17;;;7.70;99.90;;;;;;5096112;28;20059;-54
2022/09/19 03:13:05;;;;;;;2.17;1.73;;;7.60;99.90;;;;;;5096460;28;20378;-52
2022/09/19 03:15:47;;;;;;;2.40;1.77;;;7.50;99.90;;;;;;5095930;28;20025;-52
2022/09/19 03:18:16;;;;;;;3.28;1.90;;;7.50;99.90;;;;;;5095798;28;20035;-53
2022/09/19 03:20:51;;;;;;;2.97;1.83;;;7.50;99.90;;;;;;5095450;28;20028;-52
2022/09/19 03:23:35;;;;;;;3.50;2.17;;;7.50;99.90;;;;;;5096120;28;20031;-55
2022/09/19 03:26:01;;;;;;;4.30;2.33;;;7.40;99.90;;;;;;5095782;28;20031;-55
2022/09/19 03:28:27;;;;;;;3.22;1.90;;;7.40;99.90;;;;;;5095718;28;20525;-53
2022/09/19 03:30:59;;;;;;;4.00;2.00;;;7.30;99.90;;;;;;5095714;28;20490;-53
2022/09/19 03:33:26;;;;;;;2.92;2.08;;;7.30;99.90;;;;;;5095286;28;20024;-53
2022/09/19 03:35:52;;;;;;;3.80;1.80;;;7.30;99.90;;;;;;5095904;28;20077;-51
2022/09/19 03:38:19;;;;;;;2.90;1.88;;;7.20;99.90;;;;;;5095486;28;20097;-53
2022/09/19 03:40:45;;;;;;;3.17;2.08;;;7.10;99.90;;;;;;5095393;28;20486;-54
2022/09/19 03:43:11;;;;;;;4.38;2.00;;;7.00;99.90;;;;;;5095417;28;20032;-54
2022/09/19 03:45:36;;;;;;;3.38;2.13;;;7.00;99.90;;;;;;5095583;28;20028;-53
2022/09/19 03:48:02;;;;;;;2.92;1.90;;;6.90;99.90;;;;;;5094754;28;20024;-54
2022/09/19 03:50:28;;;;;;;5.85;1.90;;;6.90;99.90;;;;;;5095360;28;20026;-51
2022/09/19 03:52:54;;;;;;;3.22;1.90;;;6.90;99.90;;;;;;5095343;28;20464;-54
2022/09/19 03:55:20;;;;;;;5.05;1.90;;;6.90;99.90;;;;;;5095214;28;20028;-53
2022/09/19 03:57:46;;;;;;;3.85;2.00;;;6.80;99.90;;;;;;5095194;28;20062;-54
2022/09/19 04:00:12;;;;;;;3.35;1.92;;;6.80;99.90;;;;;;5094896;28;20027;-55
2022/09/19 04:02:38;;;;;;;2.65;1.90;;;6.70;99.90;;;;;;5094593;28;20020;-52
2022/09/19 04:05:04;;;;;;;3.40;1.77;;;6.70;99.90;;;;;;5095027;28;20047;-51
2022/09/19 04:07:30;;;;;;;4.00;1.70;;;6.70;99.90;;;;;;5094936;28;20024;-52
2022/09/19 04:09:56;;;;;;;2.30;1.73;;;6.60;99.90;;;;;;5094919;28;20471;-53
2022/09/19 04:12:23;;;;;;;6.93;2.00;;;6.60;99.90;;;;;;5094450;28;20024;-54
2022/09/19 04:14:48;;;;;;;2.60;1.98;;;6.60;99.90;;;;;;5094679;28;20048;-52
2022/09/19 04:17:15;;;;;;;4.25;2.00;;;6.50;99.90;;;;;;5094539;28;20021;-53
2022/09/19 04:19:42;;;;;;;4.50;2.00;;;6.50;99.90;;;;;;5094969;28;20028;-53
2022/09/19 04:22:08;;;;;;;2.35;1.80;;;6.50;99.90;;;;;;5094713;28;20398;-53
2022/09/19 04:24:39;;;;;;;3.42;2.10;;;6.40;99.90;;;;;;5095013;28;20032;-53
2022/09/19 04:27:06;;;;;;;4.45;1.88;;;6.40;99.90;;;;;;5094649;28;20086;-53
2022/09/19 04:29:33;;;;;;;3.50;1.90;;;6.30;99.90;;;;;;5094385;28;20508;-53
2022/09/19 04:32:02;;;;;;;2.92;2.28;;;6.30;99.90;;;;;;5094218;28;20111;-55
2022/09/19 04:34:28;;;;;;;2.35;1.85;;;6.20;99.90;;;;;;5094423;28;20024;-53
2022/09/19 04:36:56;;;;;;;4.25;1.95;;;6.20;99.90;;;;;;5094499;28;20032;-53
2022/09/19 04:39:22;;;;;;;5.03;1.90;;;6.20;99.90;;;;;;5094828;28;20023;-52
2022/09/19 04:41:52;;;;;;;4.57;2.05;;;6.10;99.90;;;;;;5092992;28;20028;-54
2022/09/19 04:44:18;;;;;;;3.10;1.88;;;6.10;99.90;;;;;;5094406;28;20040;-53
2022/09/19 04:46:46;;;;;;;2.90;1.63;;;6.00;99.90;;;;;;5093773;28;20091;-52
2022/09/19 04:49:13;;;;;;;2.50;1.60;;;6.00;99.90;;;;;;5094214;28;20028;-54
2022/09/19 04:51:39;;;;;;;2.55;1.73;;;5.90;99.90;;;;;;5094285;28;20865;-53
2022/09/19 04:54:06;;;;;;;3.25;1.90;;;5.90;99.90;;;;;;5093818;28;20052;-53
2022/09/19 04:56:32;;;;;;;4.05;1.80;;;5.80;99.90;;;;;;5094090;28;20490;-51
2022/09/19 04:59:02;;;;;;;3.47;1.80;;;5.80;99.90;;;;;;5094224;28;20060;-53
2022/09/19 05:01:30;;;;;;;3.78;1.83;;;5.70;99.90;;;;;;5093561;28;20035;-53
2022/09/19 05:03:57;;;;;;;2.47;1.48;;;5.70;99.90;;;;;;5093941;28;20058;-51
2022/09/19 05:06:24;;;;;;;2.13;1.60;;;5.60;99.90;;;;;;5093856;28;20028;-54
2022/09/19 05:08:50;;;;;;;2.90;1.73;;;5.60;99.90;;;;;;5094222;28;20516;-53
2022/09/19 05:11:21;;;;;;;3.75;2.00;;;5.60;99.90;;;;;;5093456;28;20036;-51
2022/09/19 05:13:49;;;;;;;2.38;1.75;;;5.60;99.90;;;;;;5093649;28;20031;-51
2022/09/19 05:16:15;;;;;;;3.67;2.00;;;5.60;99.90;;;;;;5093473;28;20119;-53
2022/09/19 05:18:41;;;;;;;3.78;1.80;;;5.50;99.90;;;;;;5093793;28;20043;-51
2022/09/19 05:21:13;;;;;;;5.53;2.30;;;5.40;99.90;;;;;;5093661;28;20016;-51
2022/09/19 05:23:39;;;;;;;2.55;1.70;;;5.40;99.90;;;;;;5092242;28;20071;-53
2022/09/19 05:26:16;;;;;;;3.25;1.90;;;5.40;99.90;;;;;;5093550;28;20119;-52
2022/09/19 05:28:45;;;;;;;4.07;2.25;;;5.30;99.90;;;;;;5093708;28;20107;-51
2022/09/19 05:31:12;;;;;;;7.10;2.13;;;5.30;99.90;;;;;;5093136;28;20102;-53
2022/09/19 05:33:38;;;;;;;6.00;2.20;;;5.20;99.90;;;;;;5093173;28;20058;-52
2022/09/19 05:36:05;;;;;;;4.40;2.50;;;5.30;99.90;;;;;;5093720;28;20100;-51
2022/09/19 05:38:32;;;;;;;6.22;2.00;;;5.30;99.90;;;;;;5093280;28;20047;-59
2022/09/19 05:40:59;;;;;;;4.70;2.10;;;5.30;99.90;;;;;;5093204;28;20024;-54
2022/09/19 05:43:25;;;;;;;3.97;1.80;;;5.30;99.90;;;;;;5093360;28;20109;-54
2022/09/19 05:45:55;;;;;;;2.63;2.00;;;5.30;99.90;;;;;;5092863;28;20020;-52
2022/09/19 05:48:22;;;;;;;4.32;2.00;;;5.20;99.90;;;;;;5092741;28;20028;-53
2022/09/19 05:50:49;;;;;;;3.58;1.95;;;5.20;99.90;;;;;;5093075;28;20028;-53
2022/09/19 05:56:01;;;;;;;4.55;2.00;;;5.30;99.90;;;;;;5092957;28;20409;-51
2022/09/19 05:58:27;;;;;;;3.97;2.00;;;5.30;99.90;;;;;;5093062;28;20520;-51
2022/09/19 06:00:54;;;;;;;3.50;1.70;;;5.30;99.90;;;;;;5092402;28;20020;-54
2022/09/19 06:03:22;;;;;;;4.35;1.70;;;5.30;99.90;;;;;;5092924;28;20035;-55
2022/09/19 06:05:50;;;;;;;5.57;1.90;;;5.40;99.90;;;;;;5092902;28;20054;-51
2022/09/19 06:08:21;;;;;;;5.35;1.90;;;5.40;99.90;;;;;;5092698;28;20517;-54
2022/09/19 06:10:48;;;;;;;6.97;2.30;;;5.50;99.90;;;;;;5092866;28;20024;-51
2022/09/19 06:13:17;;;;;;;6.15;2.20;;;5.50;99.90;;;;;;5092366;28;20424;-54
2022/09/19 06:15:43;;;;;;;8.57;2.22;;;5.60;99.90;;;;;;5092550;28;20501;-51
2022/09/19 06:18:11;;;;;;;6.90;2.20;;;5.70;99.90;;;;;;5092669;28;20099;-51
2022/09/19 06:20:42;;;;;;;6.55;2.55;;;5.90;99.90;;;;;;5092566;28;20493;-53
2022/09/19 06:23:12;;;;;;;7.95;2.25;;;6.60;99.90;;;;;;5092535;28;20119;-52
2022/09/19 06:25:39;;;;;;;7.72;2.60;;;8.60;99.90;;;;;;5092432;28;20052;-52
2022/09/19 06:28:10;;;;;;;8.23;2.70;;;9.40;99.90;;;;;;5091991;28;20039;-51
2022/09/19 06:30:37;;;;;;;6.18;2.42;;;10.00;99.90;;;;;;5092408;28;20139;-53
2022/09/19 06:33:06;;;;;;;10.68;2.25;;;10.70;99.90;;;;;;5092688;28;20020;-50
2022/09/19 06:35:32;;;;;;;7.90;2.38;;;11.30;99.90;;;;;;5092127;28;20115;-51
2022/09/19 06:38:00;;;;;;;4.15;1.80;;;12.20;99.90;;;;;;5092003;28;20425;-50
2022/09/19 06:40:26;;;;;;;3.10;1.63;;;13.30;99.90;;;;;;5092309;28;20031;-52
2022/09/19 06:43:03;;;;;;;6.85;1.92;;;16.70;99.90;;;;;;5091968;28;20020;-54
2022/09/19 06:45:31;;;;;;;5.75;2.10;;;17.90;98.80;;;;;;5092285;28;20085;-52
2022/09/19 06:47:58;;;;;;;9.77;2.58;;;18.30;96.00;;;;;;5091918;28;20024;-52
2022/09/19 06:50:25;;;;;;;10.38;2.08;;;18.60;94.90;;;;;;5091988;28;20023;-51
2022/09/19 06:52:51;;;;;;;5.13;2.50;;;18.90;94.10;;;;;;5091801;28;20418;-53
2022/09/19 06:55:18;;;;;;;9.95;2.80;;;19.40;92.90;;;;;;5091740;28;20048;-53
2022/09/19 06:57:51;;;;;;;4.15;2.35;;;19.20;92.70;;;;;;5092062;28;20031;-53
2022/09/19 07:00:17;;;;;;;8.68;2.33;;;19.60;92.00;;;;;;5091441;28;20032;-55
2022/09/19 07:02:43;;;;;;;5.20;2.10;;;20.10;91.60;;;;;;5091933;28;20032;-53
2022/09/19 07:05:09;;;;;;;6.95;2.30;;;19.50;91.40;;;;;;5092449;28;20111;-54
2022/09/19 07:07:34;;;;;;;10.45;2.60;;;17.80;93.60;;;;;;5091945;28;20013;-53
2022/09/19 07:10:00;;;;;;;6.00;2.35;;;16.80;94.30;;;;;;5092040;28;20059;-52
2022/09/19 07:12:26;;;;;;;5.40;1.98;;;16.80;95.60;;;;;;5091285;28;20385;-54
2022/09/19 07:14:51;;;;;;;7.03;2.45;;;18.80;93.60;;;;;;5084789;28;20060;-49
2022/09/19 07:17:17;;;;;;;4.85;2.58;;;19.60;92.80;;;;;;5089499;28;20016;-53
2022/09/19 07:19:44;;;;;;;5.97;2.05;;;20.10;91.90;;;;;;5091425;28;20051;-53
2022/09/19 07:22:10;;;;;;;6.43;2.28;;;21.00;91.30;;;;;;5107571;28;20500;-51
2022/09/19 07:24:35;;;;;;;9.50;2.60;;;21.00;90.80;;;;;;5111433;28;20032;-54
2022/09/19 07:27:01;;;;;;;5.47;2.20;;;21.10;90.60;;;;;;5111365;28;20358;-53
2022/09/19 07:29:27;;;;;;;12.38;2.38;;;21.60;90.30;;;;;;5110152;28;20024;-50
2022/09/19 07:31:53;;;;;;;7.28;2.10;;;21.80;90.20;;;;;;5111438;28;20366;-55
2022/09/19 07:34:18;;;;;;;3.58;1.92;;;22.00;88.60;;;;;;5095325;28;20032;-53
2022/09/19 07:36:44;;;;;;;3.40;1.58;;;21.70;90.10;;;;;;5091550;28;20020;-50
2022/09/19 07:39:10;;;;;;;5.85;1.80;;;21.60;89.00;;;;;;5090811;28;20039;-50
2022/09/19 07:41:35;;;;;;;3.20;1.58;;;21.10;90.10;;;;;;5090879;28;20016;-50
2022/09/19 07:44:01;;;;;;;4.45;1.45;;;20.50;90.40;;;;;;5090627;28;20039;-54
2022/09/19 07:46:27;;;;;;;8.18;1.70;;;21.50;90.30;;;;;;5092257;28;20478;-54
2022/09/19 07:48:54;;;;;;;6.35;1.58;;;22.60;88.90;;;;;;5093827;28;20035;-51
2022/09/19 07:51:20;;;;;;;5.43;1.40;;;22.70;87.70;;;;;;5093839;28;20035;-51
2022/09/19 07:53:46;;;;;;;7.57;1.70;;;22.40;87.50;;;;;;5094806;28;20147;-54
2022/09/19 07:56:13;;;;;;;5.75;1.52;;;22.20;88.10;;;;;;5094402;28;20107;-53
2022/09/19 07:58:38;;;;;;;2.33;1.40;;;23.50;85.60;;;;;;5093514;28;20079;-51
2022/09/19 08:01:04;;;;;;;3.65;1.58;;;24.20;84.70;;;;;;5094787;28;20056;-52
2022/09/19 08:03:30;;;;;;;6.10;1.77;;;23.70;83.70;;;;;;5092233;28;20047;-53
2022/09/19 08:05:59;;;;;;;4.95;1.48;;;23.60;84.60;;;;;;5094712;28;20104;-52
2022/09/19 08:08:26;;;;;;;3.05;1.48;;;23.00;84.80;;;;;;5101920;28;20034;-53
2022/09/19 08:10:53;;;;;;;5.47;1.40;;;23.70;82.30;;;;;;5093642;28;20422;-51
2022/09/19 08:13:19;;;;;;;3.05;1.50;;;23.20;83.60;;;;;;5095212;28;20032;-50
2022/09/19 08:15:46;;;;;;;1.70;1.27;;;22.00;84.90;;;;;;5094591;28;20506;-54
2022/09/19 08:18:21;;;;;;;2.20;1.45;;;22.40;84.20;;;;;;5085628;28;20608;-53
2022/09/19 08:20:48;;;;;;;4.65;1.50;;;23.10;81.80;;;;;;5095005;28;20037;-50
2022/09/19 08:23:19;;;;;;;4.50;1.50;;;24.30;82.50;;;;;;5114952;28;20104;-52
2022/09/19 08:25:46;;;;;;;3.72;1.30;;;24.60;81.50;;;;;;5113576;28;20045;-51
2022/09/19 08:28:13;;;;;;;3.85;1.50;;;24.80;80.50;;;;;;5105861;28;20150;-52
2022/09/19 08:30:42;;;;;;;3.65;1.40;;;25.80;79.50;;;;;;5094475;28;20050;-53
2022/09/19 08:33:09;;;;;;;7.85;1.40;;;26.50;78.30;;;;;;5093157;28;20028;-52
2022/09/19 08:35:37;;;;;;;4.18;1.55;;;25.60;77.50;;;;;;5094226;28;20021;-53
2022/09/19 08:38:05;;;;;;;2.70;1.40;;;24.60;79.40;;;;;;5093966;28;20142;-52
2022/09/19 08:40:35;;;;;;;2.65;1.30;;;25.10;78.40;;;;;;5093661;28;20024;-53
2022/09/19 08:43:12;;;;;;;3.65;1.30;;;24.80;78.00;;;;;;5093715;28;20141;-50
2022/09/19 08:46:04;;;;;;;3.08;1.33;;;25.50;76.00;;;;;;5093017;28;20099;-53
2022/09/19 08:49:08;;;;;;;3.67;1.38;;;26.10;75.60;;;;;;5093421;28;20501;-52
2022/09/19 08:51:43;;;;;;;2.65;1.50;;;26.70;73.60;;;;;;5089680;28;20524;-53
2022/09/19 08:54:23;;;;;;;4.13;1.48;;;26.90;74.80;;;;;;5092894;28;20044;-51
2022/09/19 08:56:49;;;;;;;3.97;1.17;;;27.40;72.70;;;;;;5099742;28;20063;-54
2022/09/19 08:59:20;;;;;;;2.13;1.30;;;27.60;72.20;;;;;;5114001;28;20371;-53
2022/09/19 09:01:47;;;;;;;2.22;1.30;;;28.70;72.40;;;;;;5093181;28;20035;-53
2022/09/19 09:04:30;;;;;;;2.30;1.27;;;28.80;70.00;;;;;;5093321;28;20063;-54
2022/09/19 09:06:59;;;;;;;;;;;25.90;71.50;;;;;;5092900;28;20031;-53
2022/09/19 09:09:50;;;;;;;3.17;1.30;;;27.80;72.00;;;;;;5093040;28;19998;-53
2022/09/19 09:12:22;;;;;;;2.80;1.30;;;27.80;69.60;;;;;;5011257;28;20381;-53
2022/09/19 09:15:12;;;;;;;2.92;1.20;;;26.60;70.40;;;;;;5010549;28;20643;-53
2022/09/19 09:18:01;;;;;;;3.33;1.33;;;28.20;69.80;;;;;;5010777;28;20061;-54
2022/09/19 09:20:48;;;;;;;2.13;1.20;;;28.10;68.80;;;;;;4990067;28;20061;-53
2022/09/19 09:23:26;;;;;;;1.80;1.25;;;27.00;67.20;;;;;;4990419;28;20588;-53
2022/09/19 09:26:01;;;;;;;4.25;1.50;;;26.70;67.60;;;;;;4991305;28;20115;-54
2022/09/19 09:28:46;;;;;;;1.88;1.35;;;27.60;69.00;;;;;;5006882;28;20507;-52
2022/09/19 09:31:32;;;;;;;4.72;1.40;;;26.90;68.40;;;;;;4991515;28;20031;-54
2022/09/19 09:34:10;;;;;;;3.42;1.50;;;26.20;67.30;;;;;;4991091;28;20077;-54
2022/09/19 09:36:48;;;;;;;2.67;1.10;;;26.00;66.90;;;;;;4990267;28;20038;-52
2022/09/19 09:39:15;;;;;;;2.00;1.40;;;25.80;67.20;;;;;;4990730;28;20453;-53
2022/09/19 09:41:47;;;;;;;3.05;1.20;;;28.40;66.60;;;;;;4990122;28;20456;-53
2022/09/19 09:44:13;;;;;;;2.10;1.30;;;29.40;64.10;;;;;;4990901;28;20444;-54
2022/09/19 09:46:50;;;;;;;2.10;1.48;;;29.30;65.30;;;;;;4991586;28;20137;-53
2022/09/19 09:49:18;;;;;;;4.15;1.20;;;31.10;63.40;;;;;;5053117;28;20036;-54
2022/09/19 09:52:17;;;;;;;3.60;1.30;;;30.80;62.40;;;;;;5092532;28;20054;-54
2022/09/19 09:57:50;;;;;;;5.38;1.40;;;29.20;64.20;;;;;;5105660;28;20085;-54
2022/09/19 10:05:53;;;;;;;1.75;1.40;;;31.40;62.60;;;;;;5092353;28;20074;-55
2022/09/19 10:08:28;;;;;;;2.75;1.27;;;32.30;62.40;;;;;;5091788;28;20020;-54
2022/09/19 10:11:31;;;;;;;1.40;1.30;;;31.60;60.90;;;;;;5091480;28;20036;-55
2022/09/19 10:14:04;;;;;;;1.30;1.20;;;32.20;61.50;;;;;;5092489;28;20472;-54
2022/09/19 10:16:32;;;;;;;2.97;1.33;;;34.30;59.10;;;;;;5091541;28;20103;-55
2022/09/19 10:19:12;;;;;;;2.88;1.50;;;32.30;59.00;;;;;;5087091;28;20032;-55
2022/09/19 10:21:38;;;;;;;2.53;1.30;;;35.10;58.60;;;;;;5071538;28;20029;-55
2022/09/19 10:24:43;;;;;;;2.15;1.35;;;29.70;60.20;;;;;;5070905;28;20043;-56
2022/09/19 10:27:22;;;;;;;3.35;1.40;;;30.70;60.10;;;;;;5070370;28;20082;-52
2022/09/19 10:29:58;;;;;;;3.88;1.30;;;30.50;60.10;;;;;;5071546;28;20025;-51
2022/09/19 10:32:37;;;;;;;5.50;1.30;;;28.80;60.50;;;;;;5072172;28;20024;-55
2022/09/19 10:35:36;;;;;;;4.20;1.30;;;29.10;60.30;;;;;;5071534;28;20048;-54
2022/09/19 10:38:12;;;;;;;3.92;1.42;;;31.60;59.10;;;;;;5071318;28;20112;-55
2022/09/19 10:40:55;;;;;;;3.10;1.33;;;32.40;59.40;;;;;;5071587;28;20031;-53
2022/09/19 10:43:33;;;;;;;2.70;1.30;;;31.00;60.20;;;;;;5071098;28;20051;-55
2022/09/19 10:46:05;;;;;;;4.68;1.67;;;30.70;58.70;;;;;;5072089;28;20036;-54
2022/09/19 10:48:33;;;;;;;4.30;1.33;;;30.00;60.10;;;;;;5080655;28;20512;-55
2022/09/19 10:51:01;;;;;;;1.85;1.30;;;32.70;57.30;;;;;;5090454;28;20028;-54
2022/09/19 10:53:32;;;;;;;3.28;1.55;;;32.10;57.40;;;;;;5091043;28;20040;-55
2022/09/19 10:56:11;;;;;;;2.00;1.35;;;32.50;57.80;;;;;;5091764;28;20115;-54
2022/09/19 10:58:40;;;;;;;5.78;1.45;;;29.40;57.80;;;;;;5070734;28;20028;-54
2022/09/19 11:01:21;;;;;;;2.15;1.30;;;29.60;57.00;;;;;;5071265;28;20025;-55
2022/09/19 11:04:08;;;;;;;1.73;1.30;;;26.20;58.70;;;;;;5070426;28;20119;-54
2022/09/19 11:06:34;;;;;;;2.92;1.50;;;27.00;59.20;;;;;;5070473;28;20058;-52
2022/09/19 11:09:05;;;;;;;4.25;1.60;;;26.60;57.50;;;;;;5071009;28;20024;-54
2022/09/19 11:11:45;;;;;;;4.05;1.25;;;26.20;58.80;;;;;;5069733;28;20031;-51
2022/09/19 11:14:18;;;;;;;2.50;1.25;;;25.20;58.90;;;;;;5070786;28;20017;-54
2022/09/19 11:17:03;;;;;;;;;;;26.40;58.50;;;;;;5071557;28;20093;-55
2022/09/19 11:19:48;;;;;;;4.32;1.50;;;25.40;59.70;;;;;;5073897;28;19912;-54
2022/09/19 11:23:03;;;;;;;5.53;1.65;;;25.60;60.00;;;;;;5094545;28;20104;-55
2022/09/19 11:25:52;;;;;;;10.70;9.65;;;27.20;60.00;;;;;;5094329;28;20055;-54
2022/09/19 11:28:24;;;;;;;5.03;2.08;;;25.20;61.80;;;;;;5095260;28;20112;-54
2022/09/19 11:31:24;;;;;;;2.83;1.50;;;25.30;61.20;;;;;;5095206;28;20060;-52
2022/09/19 11:34:21;;;;;;;4.20;2.42;;;27.40;60.20;;;;;;5092206;28;20075;-53
2022/09/19 11:37:06;;;;;;;3.55;1.70;;;25.30;61.10;;;;;;5095443;28;20021;-53
2022/09/19 11:39:52;;;;;;;2.65;1.80;;;25.00;59.90;;;;;;5095241;28;20030;-54
2022/09/19 11:42:23;;;;;;;3.67;1.85;;;24.20;63.30;;;;;;5095045;28;20107;-55
2022/09/19 11:44:58;;;;;;;5.38;1.50;;;25.70;63.40;;;;;;5094819;28;20067;-51
2022/09/19 11:47:38;;;;;;;4.90;1.60;;;25.80;62.10;;;;;;5094589;28;20039;-55
2022/09/19 11:50:20;;;;;;;2.88;1.60;;;26.00;61.40;;;;;;5092931;28;20025;-55
2022/09/19 11:52:52;;;;;;;1.85;1.60;;;25.40;63.10;;;;;;5092731;28;20056;-54
2022/09/19 11:55:43;;;;;;;7.13;2.05;;;25.60;64.20;;;;;;5094644;28;20056;-54
2022/09/19 11:58:42;;;;;;;2.05;1.63;;;25.10;64.10;;;;;;5095150;28;20039;-55
2022/09/19 12:01:21;;;;;;;1.80;1.40;;;25.70;60.70;;;;;;5094618;28;20044;-54
2022/09/19 12:04:18;;;;;;;4.07;1.70;;;25.10;63.20;;;;;;5094552;28;20040;-53
2022/09/19 12:06:49;;;;;;;2.33;1.85;;;25.30;58.20;;;;;;5094597;28;20466;-53
2022/09/19 12:09:25;;;;;;;3.38;1.50;;;25.20;57.20;;;;;;5093765;28;20051;-53
2022/09/19 12:12:00;;;;;;;2.83;1.75;;;25.20;62.00;;;;;;5094563;28;20056;-53
2022/09/19 12:14:31;;;;;;;2.92;1.60;;;25.30;56.30;;;;;;5094601;28;20020;-54
2022/09/19 12:17:04;;;;;;;4.18;1.70;;;24.90;62.10;;;;;;5093929;28;20038;-53
2022/09/19 12:19:34;;;;;;;2.63;1.58;;;25.20;58.30;;;;;;5094418;28;20031;-54
2022/09/19 12:22:19;;;;;;;2.85;1.55;;;24.90;57.70;;;;;;5073980;28;20398;-53
2022/09/19 12:24:53;;;;;;;5.55;1.60;;;25.60;57.70;;;;;;5073913;28;20037;-53
2022/09/19 12:27:40;;;;;;;3.72;1.52;;;25.40;58.70;;;;;;5073914;28;20048;-54
2022/09/19 12:30:18;;;;;;;3.53;1.70;;;24.90;62.30;;;;;;5073642;28;20017;-54
2022/09/19 12:32:49;;;;;;;2.88;1.50;;;24.80;63.50;;;;;;5073357;28;20029;-54
2022/09/19 12:35:20;;;;;;;3.45;1.63;;;24.40;63.40;;;;;;5073858;28;20035;-54
2022/09/19 12:38:04;;;;;;;2.35;1.55;;;25.00;61.40;;;;;;5074220;28;20031;-53
2022/09/19 12:40:43;;;;;;;3.55;1.90;;;24.40;59.50;;;;;;5073849;28;20038;-54
2022/09/19 12:43:32;;;;;;;3.10;1.70;;;24.10;60.30;;;;;;5073637;28;20028;-53
2022/09/19 12:46:09;;;;;;;4.57;1.58;;;24.80;61.00;;;;;;5073447;28;20028;-53
2022/09/19 12:48:43;;;;;;;3.72;1.55;;;24.40;62.30;;;;;;5083648;28;20024;-54
2022/09/19 12:51:11;;;;;;;6.93;1.60;;;24.70;62.90;;;;;;5094221;28;20099;-53
2022/09/19 12:53:44;;;;;;;2.05;1.52;;;24.60;61.40;;;;;;5093523;28;20516;-53
2022/09/19 12:56:21;;;;;;;2.28;1.50;;;24.30;63.30;;;;;;5093567;28;20478;-53
2022/09/19 12:59:00;;;;;;;3.33;1.58;;;24.60;61.50;;;;;;5093360;28;20107;-54
2022/09/19 13:01:26;;;;;;;3.38;1.40;;;24.40;61.20;;;;;;5093497;28;20028;-55
2022/09/19 13:04:18;;;;;;;2.85;1.40;;;24.10;62.20;;;;;;5093890;28;20047;-54
2022/09/19 13:06:44;;;;;;;2.25;1.60;;;24.20;65.50;;;;;;5093515;28;20028;-54
2022/09/19 13:09:18;;;;;;;1.80;1.50;;;24.20;65.40;;;;;;5093663;28;20028;-53
2022/09/19 13:12:43;;;;;;;4.55;1.50;;;24.50;63.60;;;;;;5093908;28;20024;-53
2022/09/19 13:15:33;;;;;;;2.90;1.63;;;24.20;63.90;;;;;;5010910;28;20038;-54
2022/09/19 13:23:35;;;;;;;1.58;1.38;;;24.00;61.70;;;;;;5011389;28;20048;-54
2022/09/19 13:26:16;;;;;;;4.72;1.70;;;24.10;59.70;;;;;;5011005;28;20037;-54
2022/09/19 13:28:55;;;;;;;2.83;1.40;;;23.40;67.10;;;;;;5010873;28;20025;-54
2022/09/19 13:31:52;;;;;;;1.80;1.40;;;24.10;60.40;;;;;;5010898;28;20041;-52
2022/09/19 13:34:33;;;;;;;2.75;1.65;;;24.00;64.50;;;;;;5011434;28;20025;-55
2022/09/19 13:37:04;;;;;;;1.30;1.20;;;23.40;64.60;;;;;;5011027;28;20034;-54
2022/09/19 13:39:47;;;;;;;1.48;1.30;;;23.30;64.40;;;;;;5010885;28;20120;-55
2022/09/19 13:42:23;;;;;;;3.65;1.50;;;23.90;61.70;;;;;;5010699;28;20037;-53